Airports

 

Airport Name Latest METAR Visual Conditions
Augusta Regional Airport (AGS) KAGS 191653Z VRB04KT 10SM SCT028 30/22 A3008 RMK AO2 SLP184 T03000222 $ VFR
Hartsfield-Jackson Atlanta International Airport (ATL) KATL 191652Z 15003KT 10SM FEW032 SCT110 BKN140 OVC200 27/21 A3011 RMK AO2 RAB31E40 SLP187 TCU DSNT NE E SHRA N-NE P0000 T02720211 VFR
Asheville Regional Airport (AVL) KAVL 191654Z 18005KT 10SM CLR 27/21 A3017 RMK AO2 SLP187 T02670206 VFR
Birmingham-Shuttlesworth International Airport (BHM) KBHM 191653Z 18004KT 10SM -RA BKN020 OVC060 27/22 A3011 RMK AO2 SLP186 P0000 T02720217 MVFR
Chattanooga Metropolitan Airport (CHA) KCHA 191653Z 34006KT 10SM FEW020 BKN075 BKN120 OVC250 29/18 A3009 RMK AO2 SLP179 T02890183 VFR
Charlotte Douglas International Airport (CLT) KCLT 191652Z 00000KT 4SM RA BR FEW015 BKN045 OVC080 24/22 A3013 RMK AO2 LTG DSNT W RAB13 SLP210 P0003 T02440222 MVFR
Greenville-Spartanburg International Airport (GSP) KGSP 191653Z 15007KT 10SM SCT029 SCT039 BKN070 28/21 A3012 RMK AO2 SLP186 T02830211 VFR
Montgomery Regional Airport (MGM) KMGM 191653Z 00000KT 10SM CLR 29/22 A3008 RMK AO2 SLP181 T02890217 VFR
DeKalb-Peachtree Airport (PDK) KPDK 191653Z 14004KT 10SM FEW029 SCT039 BKN070 27/22 A3011 RMK AO2 RAB27E50 SLP180 P0000 T02670222 VFR
Tri-Cities Regional Airport (TRI) KTRI 191653Z 11004KT 10SM SCT180 BKN250 29/18 A3013 RMK AO2 SLP175 T02940183 VFR
McGhee Tyson Airport (TYS) KTYS 191653Z VRB06KT 10SM FEW029 BKN110 OVC250 29/20 A3009 RMK AO2 SLP179 T02890200 VFR